sensor_id;sensor_type;location;lat;lon;timestamp;pressure;altitude;pressure_sealevel;temperature;humidity
20424;BME280;10371;49.042;8.002;2023-04-04T00:00:20;100814.75;;;0.67;77.85
20424;BME280;10371;49.042;8.002;2023-04-04T00:01:20;100820.66;;;0.69;77.57
20424;BME280;10371;49.042;8.002;2023-04-04T00:02:21;100820.66;;;0.69;77.65
20424;BME280;10371;49.042;8.002;2023-04-04T00:03:21;100819.00;;;0.68;77.94
20424;BME280;10371;49.042;8.002;2023-04-04T00:04:21;100811.38;;;0.65;77.54
20424;BME280;10371;49.042;8.002;2023-04-04T00:05:21;100812.22;;;0.64;77.76
20424;BME280;10371;49.042;8.002;2023-04-04T00:06:22;100819.09;;;0.63;77.94
20424;BME280;10371;49.042;8.002;2023-04-04T00:07:22;100818.31;;;0.61;78.20
20424;BME280;10371;49.042;8.002;2023-04-04T00:08:22;100814.94;;;0.59;78.41
20424;BME280;10371;49.042;8.002;2023-04-04T00:09:23;100803.84;;;0.59;78.34
20424;BME280;10371;49.042;8.002;2023-04-04T00:10:23;100803.03;;;0.57;78.23
20424;BME280;10371;49.042;8.002;2023-04-04T00:11:25;100808.97;;;0.59;78.01
20424;BME280;10371;49.042;8.002;2023-04-04T00:12:26;100813.19;;;0.60;77.78
20424;BME280;10371;49.042;8.002;2023-04-04T00:13:26;100808.91;;;0.62;77.91
20424;BME280;10371;49.042;8.002;2023-04-04T00:14:27;100805.50;;;0.60;77.79
20424;BME280;10371;49.042;8.002;2023-04-04T00:15:27;100804.69;;;0.58;77.79
20424;BME280;10371;49.042;8.002;2023-04-04T00:16:27;100803.84;;;0.59;77.94
20424;BME280;10371;49.042;8.002;2023-04-04T00:17:27;100799.75;;;0.50;77.95
20424;BME280;10371;49.042;8.002;2023-04-04T00:18:28;100809.97;;;0.52;78.28
20424;BME280;10371;49.042;8.002;2023-04-04T00:19:28;100798.13;;;0.48;78.14
20424;BME280;10371;49.042;8.002;2023-04-04T00:20:29;100806.56;;;0.51;78.06
20424;BME280;10371;49.042;8.002;2023-04-04T00:21:30;100810.88;;;0.51;78.41
20424;BME280;10371;49.042;8.002;2023-04-04T00:22:30;100812.47;;;0.55;78.25
20424;BME280;10371;49.042;8.002;2023-04-04T00:23:31;100797.09;;;0.55;78.00
20424;BME280;10371;49.042;8.002;2023-04-04T00:24:31;100815.03;;;0.55;77.99
20424;BME280;10371;49.042;8.002;2023-04-04T00:25:31;100804.03;;;0.50;78.16
20424;BME280;10371;49.042;8.002;2023-04-04T00:26:32;100804.94;;;0.47;78.50
20424;BME280;10371;49.042;8.002;2023-04-04T00:27:32;100808.31;;;0.51;78.09
20424;BME280;10371;49.042;8.002;2023-04-04T00:28:32;100807.50;;;0.47;78.17
20424;BME280;10371;49.042;8.002;2023-04-04T00:29:32;100809.22;;;0.48;78.15
20424;BME280;10371;49.042;8.002;2023-04-04T00:30:36;100810.88;;;0.49;78.19
20424;BME280;10371;49.042;8.002;2023-04-04T00:31:37;100799.91;;;0.44;78.30
20424;BME280;10371;49.042;8.002;2023-04-04T00:32:37;100795.69;;;0.41;78.60
20424;BME280;10371;49.042;8.002;2023-04-04T00:33:37;100800.88;;;0.40;78.48
20424;BME280;10371;49.042;8.002;2023-04-04T00:34:37;100804.28;;;0.39;78.82
20424;BME280;10371;49.042;8.002;2023-04-04T00:35:38;100795.75;;;0.38;79.10
20424;BME280;10371;49.042;8.002;2023-04-04T00:36:38;100807.78;;;0.36;78.82
20424;BME280;10371;49.042;8.002;2023-04-04T00:37:38;100804.41;;;0.34;79.01
20424;BME280;10371;49.042;8.002;2023-04-04T00:38:38;100808.69;;;0.34;79.34
20424;BME280;10371;49.042;8.002;2023-04-04T00:39:39;100801.91;;;0.31;79.10
20424;BME280;10371;49.042;8.002;2023-04-04T00:40:41;100797.63;;;0.32;79.18
20424;BME280;10371;49.042;8.002;2023-04-04T00:41:42;100798.59;;;0.26;79.52
20424;BME280;10371;49.042;8.002;2023-04-04T00:42:43;100801.16;;;0.26;79.43
20424;BME280;10371;49.042;8.002;2023-04-04T00:43:43;100799.47;;;0.25;79.65
20424;BME280;10371;49.042;8.002;2023-04-04T00:44:44;100799.53;;;0.22;79.96
20424;BME280;10371;49.042;8.002;2023-04-04T00:45:45;100796.19;;;0.20;79.87
20424;BME280;10371;49.042;8.002;2023-04-04T00:46:45;100792.81;;;0.18;80.02
20424;BME280;10371;49.042;8.002;2023-04-04T00:47:46;100783.47;;;0.17;79.96
20424;BME280;10371;49.042;8.002;2023-04-04T00:48:47;100789.50;;;0.14;80.23
20424;BME280;10371;49.042;8.002;2023-04-04T00:49:48;100787.84;;;0.12;80.36
20424;BME280;10371;49.042;8.002;2023-04-04T00:50:49;100794.69;;;0.10;80.50
20424;BME280;10371;49.042;8.002;2023-04-04T00:51:49;100784.47;;;0.08;80.89
20424;BME280;10371;49.042;8.002;2023-04-04T00:52:49;100788.81;;;0.06;80.90
20424;BME280;10371;49.042;8.002;2023-04-04T00:53:50;100788.81;;;0.06;80.79
20424;BME280;10371;49.042;8.002;2023-04-04T00:54:53;100791.31;;;0.08;80.66
20424;BME280;10371;49.042;8.002;2023-04-04T00:55:53;100786.28;;;0.05;80.79
20424;BME280;10371;49.042;8.002;2023-04-04T00:56:54;100788.06;;;0.01;80.86
20424;BME280;10371;49.042;8.002;2023-04-04T00:57:54;100784.66;;;0.01;80.74
20424;BME280;10371;49.042;8.002;2023-04-04T00:58:55;100786.41;;;-0.02;81.22
20424;BME280;10371;49.042;8.002;2023-04-04T00:59:57;100790.69;;;-0.02;81.24
20424;BME280;10371;49.042;8.002;2023-04-04T01:00:59;100786.44;;;-0.03;81.12
20424;BME280;10371;49.042;8.002;2023-04-04T01:01:59;100788.91;;;0.02;80.79
20424;BME280;10371;49.042;8.002;2023-04-04T01:03:00;100792.34;;;0.01;81.12
20424;BME280;10371;49.042;8.002;2023-04-04T01:04:00;100788.94;;;0.00;81.09
20424;BME280;10371;49.042;8.002;2023-04-04T01:05:02;100783.91;;;-0.05;81.11
20424;BME280;10371;49.042;8.002;2023-04-04T01:06:03;100790.66;;;-0.01;81.02
20424;BME280;10371;49.042;8.002;2023-04-04T01:07:03;100787.34;;;-0.06;81.20
20424;BME280;10371;49.042;8.002;2023-04-04T01:08:04;100781.50;;;-0.11;81.10
20424;BME280;10371;49.042;8.002;2023-04-04T01:09:05;100776.31;;;-0.08;81.41
20424;BME280;10371;49.042;8.002;2023-04-04T01:10:06;100784.75;;;-0.03;81.00
20424;BME280;10371;49.042;8.002;2023-04-04T01:11:06;100785.53;;;-0.01;81.26
20424;BME280;10371;49.042;8.002;2023-04-04T01:12:07;100776.25;;;-0.05;80.95
20424;BME280;10371;49.042;8.002;2023-04-04T01:13:08;100779.47;;;0.04;80.72
20424;BME280;10371;49.042;8.002;2023-04-04T01:14:08;100782.91;;;0.03;81.11
20424;BME280;10371;49.042;8.002;2023-04-04T01:15:09;100772.72;;;-0.01;80.96
20424;BME280;10371;49.042;8.002;2023-04-04T01:16:10;100780.31;;;0.04;80.86
20424;BME280;10371;49.042;8.002;2023-04-04T01:17:10;100784.53;;;0.07;80.69
20424;BME280;10371;49.042;8.002;2023-04-04T01:18:13;100787.09;;;0.07;80.57
20424;BME280;10371;49.042;8.002;2023-04-04T01:19:20;100781.16;;;0.05;80.95
20424;BME280;10371;49.042;8.002;2023-04-04T01:20:28;100781.22;;;0.02;80.94
20424;BME280;10371;49.042;8.002;2023-04-04T01:21:29;100782.13;;;-0.01;80.76
20424;BME280;10371;49.042;8.002;2023-04-04T01:22:30;100777.84;;;-0.01;80.71
20424;BME280;10371;49.042;8.002;2023-04-04T01:23:59;100781.28;;;0.00;80.85
20424;BME280;10371;49.042;8.002;2023-04-04T01:25:00;100783.03;;;-0.04;80.87
20424;BME280;10371;49.042;8.002;2023-04-04T01:26:02;100777.97;;;-0.07;81.10
20424;BME280;10371;49.042;8.002;2023-04-04T01:27:02;100776.25;;;-0.06;81.30
20424;BME280;10371;49.042;8.002;2023-04-04T01:28:03;100772.88;;;-0.07;81.09
20424;BME280;10371;49.042;8.002;2023-04-04T01:29:03;100772.88;;;-0.07;81.02
20424;BME280;10371;49.042;8.002;2023-04-04T01:30:04;100781.44;;;-0.08;81.15
20424;BME280;10371;49.042;8.002;2023-04-04T01:31:06;100778.88;;;-0.08;81.54
20424;BME280;10371;49.042;8.002;2023-04-04T01:32:12;100768.66;;;-0.09;81.29
20424;BME280;10371;49.042;8.002;2023-04-04T01:33:21;100782.25;;;-0.07;81.26
20424;BME280;10371;49.042;8.002;2023-04-04T01:34:32;100780.53;;;-0.07;81.35
20424;BME280;10371;49.042;8.002;2023-04-04T01:35:52;100776.38;;;-0.11;81.28
20424;BME280;10371;49.042;8.002;2023-04-04T01:37:09;100773.69;;;-0.06;81.50
20424;BME280;10371;49.042;8.002;2023-04-04T01:38:49;100774.59;;;-0.09;81.26
20424;BME280;10371;49.042;8.002;2023-04-04T01:39:58;100769.41;;;-0.06;81.18
20424;BME280;10371;49.042;8.002;2023-04-04T01:41:07;100777.97;;;-0.07;81.32
20424;BME280;10371;49.042;8.002;2023-04-04T01:42:08;100766.16;;;-0.11;81.18
20424;BME280;10371;49.042;8.002;2023-04-04T01:43:08;100771.19;;;-0.08;81.28
20424;BME280;10371;49.042;8.002;2023-04-04T01:44:09;100768.63;;;-0.08;81.15
20424;BME280;10371;49.042;8.002;2023-04-04T01:45:09;100766.06;;;-0.08;81.37
20424;BME280;10371;49.042;8.002;2023-04-04T01:46:10;100767.75;;;-0.07;81.05
20424;BME280;10371;49.042;8.002;2023-04-04T01:47:11;100760.88;;;-0.05;80.96
20424;BME280;10371;49.042;8.002;2023-04-04T01:48:12;100769.47;;;-0.07;80.91
20424;BME280;10371;49.042;8.002;2023-04-04T01:49:12;100764.38;;;-0.09;80.83
20424;BME280;10371;49.042;8.002;2023-04-04T01:50:12;100766.97;;;-0.10;81.12
20424;BME280;10371;49.042;8.002;2023-04-04T01:51:13;100756.88;;;-0.16;81.09
20424;BME280;10371;49.042;8.002;2023-04-04T01:52:13;100770.34;;;-0.08;81.03
20424;BME280;10371;49.042;8.002;2023-04-04T01:53:14;100763.53;;;-0.09;81.05
20424;BME280;10371;49.042;8.002;2023-04-04T01:54:14;100771.19;;;-0.08;81.00
20424;BME280;10371;49.042;8.002;2023-04-04T01:55:15;100767.75;;;-0.07;80.81
20424;BME280;10371;49.042;8.002;2023-04-04T01:56:15;100768.59;;;-0.06;80.94
20424;BME280;10371;49.042;8.002;2023-04-04T01:57:16;100764.34;;;-0.07;80.64
20424;BME280;10371;49.042;8.002;2023-04-04T01:58:16;100765.28;;;-0.11;80.44
20424;BME280;10371;49.042;8.002;2023-04-04T01:59:17;100767.88;;;-0.13;80.45
20424;BME280;10371;49.042;8.002;2023-04-04T02:00:17;100766.09;;;-0.09;80.40
20424;BME280;10371;49.042;8.002;2023-04-04T02:01:18;100764.41;;;-0.10;80.54
20424;BME280;10371;49.042;8.002;2023-04-04T02:02:19;100765.25;;;-0.10;80.24
20424;BME280;10371;49.042;8.002;2023-04-04T02:03:19;100760.22;;;-0.13;80.28
20424;BME280;10371;49.042;8.002;2023-04-04T02:04:19;100762.84;;;-0.16;80.50
20424;BME280;10371;49.042;8.002;2023-04-04T02:05:20;100767.03;;;-0.13;80.16
20424;BME280;10371;49.042;8.002;2023-04-04T02:06:20;100767.81;;;-0.10;80.02
20424;BME280;10371;49.042;8.002;2023-04-04T02:07:20;100765.25;;;-0.08;79.89
20424;BME280;10371;49.042;8.002;2023-04-04T02:08:20;100774.53;;;-0.06;79.91
20424;BME280;10371;49.042;8.002;2023-04-04T02:09:21;100768.63;;;-0.08;79.49
20424;BME280;10371;49.042;8.002;2023-04-04T02:10:21;100768.66;;;-0.09;79.56
20424;BME280;10371;49.042;8.002;2023-04-04T02:11:21;100762.75;;;-0.13;79.51
20424;BME280;10371;49.042;8.002;2023-04-04T02:12:22;100767.81;;;-0.10;79.67
20424;BME280;10371;49.042;8.002;2023-04-04T02:13:22;100757.66;;;-0.14;79.69
20424;BME280;10371;49.042;8.002;2023-04-04T02:14:23;100761.13;;;-0.15;79.88
20424;BME280;10371;49.042;8.002;2023-04-04T02:15:23;100757.72;;;-0.16;79.52
20424;BME280;10371;49.042;8.002;2023-04-04T02:16:24;100755.97;;;-0.14;79.83
20424;BME280;10371;49.042;8.002;2023-04-04T02:17:24;100757.78;;;-0.19;79.65
20424;BME280;10371;49.042;8.002;2023-04-04T02:18:27;100757.78;;;-0.19;80.11
20424;BME280;10371;49.042;8.002;2023-04-04T02:19:27;100762.09;;;-0.23;80.17
20424;BME280;10371;49.042;8.002;2023-04-04T02:20:28;100763.81;;;-0.21;79.95
20424;BME280;10371;49.042;8.002;2023-04-04T02:21:28;100762.97;;;-0.22;79.98
20424;BME280;10371;49.042;8.002;2023-04-04T02:22:29;100757.84;;;-0.22;80.04
20424;BME280;10371;49.042;8.002;2023-04-04T02:23:29;100753.56;;;-0.21;80.06
20424;BME280;10371;49.042;8.002;2023-04-04T02:24:29;100757.84;;;-0.22;80.55
20424;BME280;10371;49.042;8.002;2023-04-04T02:25:30;100758.75;;;-0.25;80.22
20424;BME280;10371;49.042;8.002;2023-04-04T02:26:30;100758.84;;;-0.29;80.38
20424;BME280;10371;49.042;8.002;2023-04-04T02:27:30;100754.56;;;-0.29;80.08
20424;BME280;10371;49.042;8.002;2023-04-04T02:28:31;100752.06;;;-0.32;80.33
20424;BME280;10371;49.042;8.002;2023-04-04T02:29:31;100761.31;;;-0.25;80.54
20424;BME280;10371;49.042;8.002;2023-04-04T02:30:32;100752.81;;;-0.25;80.42
20424;BME280;10371;49.042;8.002;2023-04-04T02:31:33;100755.38;;;-0.27;80.24
20424;BME280;10371;49.042;8.002;2023-04-04T02:32:33;100753.66;;;-0.26;80.16
20424;BME280;10371;49.042;8.002;2023-04-04T02:33:33;100755.44;;;-0.30;80.34
20424;BME280;10371;49.042;8.002;2023-04-04T02:34:33;100747.72;;;-0.28;80.29
20424;BME280;10371;49.042;8.002;2023-04-04T02:35:34;100752.84;;;-0.28;80.24
20424;BME280;10371;49.042;8.002;2023-04-04T02:36:34;100750.34;;;-0.31;80.37
20424;BME280;10371;49.042;8.002;2023-04-04T02:37:35;100758.03;;;-0.31;80.47
20424;BME280;10371;49.042;8.002;2023-04-04T02:38:35;100746.06;;;-0.29;80.60
20424;BME280;10371;49.042;8.002;2023-04-04T02:39:35;100746.94;;;-0.30;80.33
20424;BME280;10371;49.042;8.002;2023-04-04T02:40:36;100745.22;;;-0.30;80.19
20424;BME280;10371;49.042;8.002;2023-04-04T02:41:38;100742.59;;;-0.28;80.30
20424;BME280;10371;49.042;8.002;2023-04-04T02:42:42;100745.16;;;-0.28;80.28
20424;BME280;10371;49.042;8.002;2023-04-04T02:43:43;100746.88;;;-0.29;79.93
20424;BME280;10371;49.042;8.002;2023-04-04T02:44:43;100746.88;;;-0.27;79.91
20424;BME280;10371;49.042;8.002;2023-04-04T02:45:46;100742.66;;;-0.31;80.36
20424;BME280;10371;49.042;8.002;2023-04-04T02:46:47;100747.00;;;-0.33;80.34
20424;BME280;10371;49.042;8.002;2023-04-04T02:47:50;100748.69;;;-0.32;80.55
20424;BME280;10371;49.042;8.002;2023-04-04T02:48:50;100746.19;;;-0.35;80.78
20424;BME280;10371;49.042;8.002;2023-04-04T02:49:51;100744.44;;;-0.33;80.60
20424;BME280;10371;49.042;8.002;2023-04-04T02:50:51;100741.06;;;-0.35;80.41
20424;BME280;10371;49.042;8.002;2023-04-04T02:51:51;100753.81;;;-0.34;80.12
20424;BME280;10371;49.042;8.002;2023-04-04T02:52:51;100746.13;;;-0.34;80.33
20424;BME280;10371;49.042;8.002;2023-04-04T02:53:53;100746.94;;;-0.30;79.96
20424;BME280;10371;49.042;8.002;2023-04-04T02:54:54;100734.22;;;-0.35;80.00
20424;BME280;10371;49.042;8.002;2023-04-04T02:55:54;100743.56;;;-0.34;80.20
20424;BME280;10371;49.042;8.002;2023-04-04T02:56:55;100740.22;;;-0.36;80.18
20424;BME280;10371;49.042;8.002;2023-04-04T02:57:55;100750.41;;;-0.33;79.89
20424;BME280;10371;49.042;8.002;2023-04-04T02:58:55;100742.66;;;-0.31;80.07
20424;BME280;10371;49.042;8.002;2023-04-04T02:59:56;100745.28;;;-0.33;79.93
20424;BME280;10371;49.042;8.002;2023-04-04T03:00:56;100748.75;;;-0.35;80.35
20424;BME280;10371;49.042;8.002;2023-04-04T03:01:56;100746.25;;;-0.38;80.21
20424;BME280;10371;49.042;8.002;2023-04-04T03:02:56;100748.81;;;-0.40;80.45
20424;BME280;10371;49.042;8.002;2023-04-04T03:03:57;100747.91;;;-0.37;80.40
20424;BME280;10371;49.042;8.002;2023-04-04T03:04:57;100746.31;;;-0.41;80.11
20424;BME280;10371;49.042;8.002;2023-04-04T03:05:58;100753.94;;;-0.40;80.27
20424;BME280;10371;49.042;8.002;2023-04-04T03:06:59;100749.72;;;-0.42;80.29
20424;BME280;10371;49.042;8.002;2023-04-04T03:07:59;100751.44;;;-0.43;80.77
20424;BME280;10371;49.042;8.002;2023-04-04T03:09:00;100748.97;;;-0.48;80.63
20424;BME280;10371;49.042;8.002;2023-04-04T03:10:00;100747.38;;;-0.52;81.07
20424;BME280;10371;49.042;8.002;2023-04-04T03:11:01;100750.69;;;-0.48;80.70
20424;BME280;10371;49.042;8.002;2023-04-04T03:12:01;100747.34;;;-0.50;80.84
20424;BME280;10371;49.042;8.002;2023-04-04T03:13:03;100757.59;;;-0.50;80.84
20424;BME280;10371;49.042;8.002;2023-04-04T03:14:03;100754.97;;;-0.49;80.87
20424;BME280;10371;49.042;8.002;2023-04-04T03:15:04;100758.41;;;-0.50;81.00
20424;BME280;10371;49.042;8.002;2023-04-04T03:16:06;100749.09;;;-0.52;81.24
20424;BME280;10371;49.042;8.002;2023-04-04T03:17:07;100759.31;;;-0.52;81.29
20424;BME280;10371;49.042;8.002;2023-04-04T03:18:09;100757.66;;;-0.55;81.24
20424;BME280;10371;49.042;8.002;2023-04-04T03:19:10;100760.22;;;-0.55;81.27
20424;BME280;10371;49.042;8.002;2023-04-04T03:20:11;100753.41;;;-0.56;81.16
20424;BME280;10371;49.042;8.002;2023-04-04T03:21:12;100756.78;;;-0.54;81.18
20424;BME280;10371;49.042;8.002;2023-04-04T03:22:12;100755.03;;;-0.52;81.24
20424;BME280;10371;49.042;8.002;2023-04-04T03:23:12;100755.88;;;-0.51;81.07
20424;BME280;10371;49.042;8.002;2023-04-04T03:24:13;100749.16;;;-0.57;81.27
20424;BME280;10371;49.042;8.002;2023-04-04T03:25:13;100751.72;;;-0.55;81.27
20424;BME280;10371;49.042;8.002;2023-04-04T03:26:13;100756.81;;;-0.55;81.33
20424;BME280;10371;49.042;8.002;2023-04-04T03:27:14;100755.94;;;-0.54;80.89
20424;BME280;10371;49.042;8.002;2023-04-04T03:28:15;100750.81;;;-0.54;81.28
20424;BME280;10371;49.042;8.002;2023-04-04T03:29:16;100751.72;;;-0.57;80.92
20424;BME280;10371;49.042;8.002;2023-04-04T03:30:16;100749.16;;;-0.57;81.16
20424;BME280;10371;49.042;8.002;2023-04-04T03:31:16;100751.78;;;-0.60;81.21
20424;BME280;10371;49.042;8.002;2023-04-04T03:32:17;100761.97;;;-0.57;81.08
20424;BME280;10371;49.042;8.002;2023-04-04T03:33:17;100746.66;;;-0.58;80.87
20424;BME280;10371;49.042;8.002;2023-04-04T03:34:18;100753.41;;;-0.56;80.90
20424;BME280;10371;49.042;8.002;2023-04-04T03:35:18;100761.13;;;-0.59;81.07
20424;BME280;10371;49.042;8.002;2023-04-04T03:36:18;100752.72;;;-0.64;81.16
20424;BME280;10371;49.042;8.002;2023-04-04T03:37:19;100756.91;;;-0.61;81.02
20424;BME280;10371;49.042;8.002;2023-04-04T03:38:19;100765.53;;;-0.64;81.21
20424;BME280;10371;49.042;8.002;2023-04-04T03:39:20;100756.97;;;-0.63;81.65
20424;BME280;10371;49.042;8.002;2023-04-04T03:40:20;100757.09;;;-0.69;81.71
20424;BME280;10371;49.042;8.002;2023-04-04T03:41:20;100747.72;;;-0.70;81.55
20424;BME280;10371;49.042;8.002;2023-04-04T03:42:21;100753.72;;;-0.71;81.53
20424;BME280;10371;49.042;8.002;2023-04-04T03:43:21;100753.72;;;-0.71;81.64
20424;BME280;10371;49.042;8.002;2023-04-04T03:44:21;100759.66;;;-0.69;81.68
20424;BME280;10371;49.042;8.002;2023-04-04T03:45:22;100760.50;;;-0.70;81.74
20424;BME280;10371;49.042;8.002;2023-04-04T03:46:22;100763.94;;;-0.70;82.02
20424;BME280;10371;49.042;8.002;2023-04-04T03:47:23;100756.34;;;-0.74;82.04
20424;BME280;10371;49.042;8.002;2023-04-04T03:48:23;100756.28;;;-0.71;81.77
20424;BME280;10371;49.042;8.002;2023-04-04T03:49:23;100757.94;;;-0.70;81.63
20424;BME280;10371;49.042;8.002;2023-04-04T03:50:24;100762.22;;;-0.69;81.64
20424;BME280;10371;49.042;8.002;2023-04-04T03:51:25;100751.16;;;-0.73;82.08
20424;BME280;10371;49.042;8.002;2023-04-04T03:52:26;100756.28;;;-0.71;81.96
20424;BME280;10371;49.042;8.002;2023-04-04T03:53:26;100757.16;;;-0.72;81.67
20424;BME280;10371;49.042;8.002;2023-04-04T03:54:27;100761.38;;;-0.71;82.04
20424;BME280;10371;49.042;8.002;2023-04-04T03:55:28;100760.50;;;-0.70;81.38
20424;BME280;10371;49.042;8.002;2023-04-04T03:56:29;100763.94;;;-0.71;81.45
20424;BME280;10371;49.042;8.002;2023-04-04T03:57:30;100758.00;;;-0.73;81.63
20424;BME280;10371;49.042;8.002;2023-04-04T03:58:34;100751.94;;;-0.68;81.54
20424;BME280;10371;49.042;8.002;2023-04-04T03:59:34;100754.53;;;-0.69;81.44
20424;BME280;10371;49.042;8.002;2023-04-04T04:00:34;100753.66;;;-0.68;81.52
20424;BME280;10371;49.042;8.002;2023-04-04T04:01:35;100761.38;;;-0.70;81.62
20424;BME280;10371;49.042;8.002;2023-04-04T04:02:35;100757.09;;;-0.69;81.44
20424;BME280;10371;49.042;8.002;2023-04-04T04:03:35;100754.56;;;-0.71;81.43
20424;BME280;10371;49.042;8.002;2023-04-04T04:04:36;100757.94;;;-0.69;81.42
20424;BME280;10371;49.042;8.002;2023-04-04T04:05:36;100758.00;;;-0.72;81.44
20424;BME280;10371;49.042;8.002;2023-04-04T04:06:36;100752.91;;;-0.73;81.45
20424;BME280;10371;49.042;8.002;2023-04-04T04:07:37;100753.84;;;-0.77;81.61
20424;BME280;10371;49.042;8.002;2023-04-04T04:08:37;100755.50;;;-0.76;81.60
20424;BME280;10371;49.042;8.002;2023-04-04T04:09:37;100758.88;;;-0.74;81.97
20424;BME280;10371;49.042;8.002;2023-04-04T04:10:38;100759.81;;;-0.78;81.74
20424;BME280;10371;49.042;8.002;2023-04-04T04:11:38;100765.75;;;-0.76;81.55
20424;BME280;10371;49.042;8.002;2023-04-04T04:12:38;100746.31;;;-0.86;81.58
20424;BME280;10371;49.042;8.002;2023-04-04T04:13:39;100763.16;;;-0.75;81.92
20424;BME280;10371;49.042;8.002;2023-04-04T04:14:39;100761.53;;;-0.79;81.89
20424;BME280;10371;49.042;8.002;2023-04-04T04:15:39;100760.69;;;-0.79;82.22
20424;BME280;10371;49.042;8.002;2023-04-04T04:16:40;100759.00;;;-0.80;81.98
20424;BME280;10371;49.042;8.002;2023-04-04T04:17:40;100761.59;;;-0.82;81.99
20424;BME280;10371;49.042;8.002;2023-04-04T04:18:41;100759.06;;;-0.83;82.18
20424;BME280;10371;49.042;8.002;2023-04-04T04:19:41;100757.41;;;-0.86;82.27
20424;BME280;10371;49.042;8.002;2023-04-04T04:20:41;100760.81;;;-0.85;82.39
20424;BME280;10371;49.042;8.002;2023-04-04T04:21:41;100762.53;;;-0.87;82.53
20424;BME280;10371;49.042;8.002;2023-04-04T04:22:46;100754.09;;;-0.93;82.99
20424;BME280;10371;49.042;8.002;2023-04-04T04:23:46;100759.16;;;-0.90;82.92
20424;BME280;10371;49.042;8.002;2023-04-04T04:24:46;100756.59;;;-0.90;83.11
20424;BME280;10371;49.042;8.002;2023-04-04T04:25:47;100749.88;;;-0.94;82.77
20424;BME280;10371;49.042;8.002;2023-04-04T04:26:47;100756.66;;;-0.91;82.61
20424;BME280;10371;49.042;8.002;2023-04-04T04:27:47;100760.06;;;-0.92;82.99
20424;BME280;10371;49.042;8.002;2023-04-04T04:28:48;100755.88;;;-0.95;82.86
20424;BME280;10371;49.042;8.002;2023-04-04T04:29:48;100755.88;;;-0.95;82.93
20424;BME280;10371;49.042;8.002;2023-04-04T04:30:48;100754.09;;;-0.93;83.13
20424;BME280;10371;49.042;8.002;2023-04-04T04:31:48;100751.56;;;-0.93;82.84
20424;BME280;10371;49.042;8.002;2023-04-04T04:32:49;100756.66;;;-0.93;82.84
20424;BME280;10371;49.042;8.002;2023-04-04T04:33:49;100761.72;;;-0.90;82.55
20424;BME280;10371;49.042;8.002;2023-04-04T04:34:49;100760.06;;;-0.92;82.79
20424;BME280;10371;49.042;8.002;2023-04-04T04:35:50;100755.88;;;-0.95;82.87
20424;BME280;10371;49.042;8.002;2023-04-04T04:36:50;100760.09;;;-0.94;83.09
20424;BME280;10371;49.042;8.002;2023-04-04T04:37:51;100762.72;;;-0.97;83.22
20424;BME280;10371;49.042;8.002;2023-04-04T04:38:52;100754.28;;;-1.03;83.14
20424;BME280;10371;49.042;8.002;2023-04-04T04:39:52;100758.44;;;-0.96;83.03
20424;BME280;10371;49.042;8.002;2023-04-04T04:40:52;100767.84;;;-0.98;83.20
20424;BME280;10371;49.042;8.002;2023-04-04T04:41:52;100750.84;;;-1.01;83.16
20424;BME280;10371;49.042;8.002;2023-04-04T04:42:53;100758.44;;;-0.95;83.22
20424;BME280;10371;49.042;8.002;2023-04-04T04:43:56;100758.50;;;-0.99;82.89
20424;BME280;10371;49.042;8.002;2023-04-04T04:44:56;100760.97;;;-0.95;83.05
20424;BME280;10371;49.042;8.002;2023-04-04T04:45:57;100755.75;;;-0.88;83.47
20424;BME280;10371;49.042;8.002;2023-04-04T04:46:57;100765.03;;;-0.84;83.56
20424;BME280;10371;49.042;8.002;2023-04-04T04:47:57;100758.25;;;-0.87;83.36
20424;BME280;10371;49.042;8.002;2023-04-04T04:48:58;100760.75;;;-0.84;83.56
20424;BME280;10371;49.042;8.002;2023-04-04T04:49:58;100762.53;;;-0.86;83.24
20424;BME280;10371;49.042;8.002;2023-04-04T04:50:58;100765.03;;;-0.84;83.39
20424;BME280;10371;49.042;8.002;2023-04-04T04:51:58;100764.97;;;-0.80;83.44
20424;BME280;10371;49.042;8.002;2023-04-04T04:52:59;100754.91;;;-0.89;83.16
20424;BME280;10371;49.042;8.002;2023-04-04T04:53:59;100763.38;;;-0.87;83.20
20424;BME280;10371;49.042;8.002;2023-04-04T04:54:59;100762.59;;;-0.91;82.82
20424;BME280;10371;49.042;8.002;2023-04-04T04:56:00;100760.97;;;-0.95;83.23
20424;BME280;10371;49.042;8.002;2023-04-04T04:57:00;100768.66;;;-0.95;83.19
20424;BME280;10371;49.042;8.002;2023-04-04T04:58:01;100762.84;;;-1.03;83.36
20424;BME280;10371;49.042;8.002;2023-04-04T04:59:02;100769.56;;;-0.99;83.65
20424;BME280;10371;49.042;8.002;2023-04-04T05:00:03;100766.19;;;-1.01;83.63
20424;BME280;10371;49.042;8.002;2023-04-04T05:01:04;100761.13;;;-1.04;83.75
20424;BME280;10371;49.042;8.002;2023-04-04T05:02:04;100770.53;;;-1.06;83.98
20424;BME280;10371;49.042;8.002;2023-04-04T05:03:04;100768.91;;;-1.08;84.19
20424;BME280;10371;49.042;8.002;2023-04-04T05:04:06;100770.53;;;-1.06;84.25
20424;BME280;10371;49.042;8.002;2023-04-04T05:05:06;100768.03;;;-1.09;84.37
20424;BME280;10371;49.042;8.002;2023-04-04T05:06:06;100783.34;;;-1.07;84.32
20424;BME280;10371;49.042;8.002;2023-04-04T05:07:07;100769.72;;;-1.08;84.47
20424;BME280;10371;49.042;8.002;2023-04-04T05:08:07;100768.00;;;-1.07;84.35
20424;BME280;10371;49.042;8.002;2023-04-04T05:09:07;100770.56;;;-1.07;84.54
20424;BME280;10371;49.042;8.002;2023-04-04T05:10:08;100773.13;;;-1.09;84.53
20424;BME280;10371;49.042;8.002;2023-04-04T05:11:08;100771.47;;;-1.10;84.51
20424;BME280;10371;49.042;8.002;2023-04-04T05:12:08;100776.50;;;-1.07;84.45
20424;BME280;10371;49.042;8.002;2023-04-04T05:13:09;100782.38;;;-1.02;84.63
20424;BME280;10371;49.042;8.002;2023-04-04T05:14:09;100779.00;;;-1.04;84.73
20424;BME280;10371;49.042;8.002;2023-04-04T05:15:10;100781.50;;;-1.01;84.29
20424;BME280;10371;49.042;8.002;2023-04-04T05:16:11;100778.16;;;-1.03;84.35
20424;BME280;10371;49.042;8.002;2023-04-04T05:17:12;100775.50;;;-0.98;84.57
20424;BME280;10371;49.042;8.002;2023-04-04T05:18:12;100781.44;;;-0.96;84.01
20424;BME280;10371;49.042;8.002;2023-04-04T05:19:12;100776.25;;;-0.92;83.92
20424;BME280;10371;49.042;8.002;2023-04-04T05:20:12;100777.06;;;-0.90;83.43